Time;durP1;ratioP1;P1;durP2;ratioP2;P2;SDS_P1;SDS_P2;PMS_P1;PMS_P2;Temp;Humidity;BMP_temperature;BMP_pressure;BME280_temperature;BME280_humidity;BME280_pressure;Samples;Min_cycle;Max_cycle;Signal;HPM_P1;HPM_P2
2021/08/04 00:01:40;;;;;;;7.50;6.37;;;17.70;99.90;;;;;;4989400;28;20412;-73
2021/08/04 00:04:06;;;;;;;11.27;6.43;;;17.70;99.90;;;;;;4984217;28;20402;-73
2021/08/04 00:06:31;;;;;;;10.18;8.40;;;17.70;99.90;;;;;;4982241;28;20409;-73
2021/08/04 00:08:58;;;;;;;9.73;7.70;;;17.70;99.90;;;;;;5000575;28;20408;-73
2021/08/04 00:11:23;;;;;;;9.43;7.27;;;17.70;99.90;;;;;;4994776;28;20459;-73
2021/08/04 00:13:49;;;;;;;9.95;6.47;;;17.70;99.90;;;;;;4982520;28;20952;-73
2021/08/04 00:16:15;;;;;;;7.40;5.27;;;17.70;99.90;;;;;;4965860;28;20393;-73
2021/08/04 00:18:40;;;;;;;5.40;3.50;;;17.70;99.90;;;;;;4966195;28;21044;-73
2021/08/04 00:21:06;;;;;;;2.60;2.40;;;17.70;99.90;;;;;;5008079;28;20406;-73
2021/08/04 00:23:32;;;;;;;2.08;1.98;;;17.70;99.90;;;;;;4992625;28;20775;-73
2021/08/04 00:25:57;;;;;;;3.33;1.90;;;17.60;99.90;;;;;;4966255;28;20410;-74
2021/08/04 00:28:23;;;;;;;2.70;2.10;;;17.50;99.90;;;;;;4992328;28;20419;-73
2021/08/04 00:30:49;;;;;;;1.80;1.70;;;17.40;99.90;;;;;;4982678;28;20473;-73
2021/08/04 00:33:14;;;;;;;1.80;1.70;;;17.30;99.90;;;;;;4967771;28;20400;-73
2021/08/04 00:35:40;;;;;;;2.05;1.52;;;17.10;99.90;;;;;;4983006;28;20534;-73
2021/08/04 00:38:10;;;;;;;1.40;1.30;;;17.00;99.90;;;;;;4974593;28;20432;-73
2021/08/04 00:40:37;;;;;;;1.60;1.50;;;17.00;99.90;;;;;;4966775;28;20410;-73
2021/08/04 00:43:03;;;;;;;1.67;1.40;;;17.00;99.90;;;;;;4994525;28;20497;-73
2021/08/04 00:45:28;;;;;;;1.20;1.20;;;17.10;99.90;;;;;;5010948;28;20982;-73
2021/08/04 00:47:56;;;;;;;1.35;1.33;;;17.30;99.90;;;;;;4986540;28;20405;-73
2021/08/04 00:50:21;;;;;;;1.23;1.23;;;17.30;99.90;;;;;;4971558;28;20993;-73
2021/08/04 00:52:48;;;;;;;1.70;1.52;;;17.40;99.90;;;;;;5001447;28;20418;-73
2021/08/04 00:55:15;;;;;;;1.50;1.40;;;17.40;99.90;;;;;;4972012;28;20911;-73
2021/08/04 00:57:41;;;;;;;4.13;2.90;;;17.50;99.90;;;;;;4970178;28;20410;-73
2021/08/04 01:00:07;;;;;;;2.08;1.98;;;17.50;99.90;;;;;;4994967;28;20420;-73
2021/08/04 01:02:53;;;;;;;1.70;1.60;;;17.30;99.90;;;;;;4970261;28;20408;-73
2021/08/04 01:05:26;;;;;;;1.60;1.50;;;17.00;99.90;;;;;;5012249;28;20422;-73
2021/08/04 01:08:06;;;;;;;1.55;1.45;;;16.70;99.90;;;;;;4970120;28;20484;-73
2021/08/04 01:10:40;;;;;;;1.50;1.40;;;16.60;99.90;;;;;;4970972;28;21027;-73
2021/08/04 01:13:21;;;;;;;2.43;1.37;;;16.50;99.90;;;;;;4968796;28;21186;-74
2021/08/04 01:15:54;;;;;;;3.38;3.03;;;16.60;99.90;;;;;;4995902;28;20401;-74
2021/08/04 01:18:23;;;;;;;7.93;5.50;;;16.60;99.90;;;;;;4969850;28;20517;-73
2021/08/04 01:20:49;;;;;;;2.00;1.90;;;16.70;99.90;;;;;;4986604;28;20931;-73
2021/08/04 01:23:23;;;;;;;1.93;1.83;;;16.80;99.90;;;;;;4970778;28;20387;-73
2021/08/04 01:25:53;;;;;;;1.98;1.73;;;16.80;99.90;;;;;;5013189;28;20796;-73
2021/08/04 01:28:27;;;;;;;1.58;1.48;;;16.80;99.90;;;;;;5009116;28;20405;-73
2021/08/04 01:30:57;;;;;;;1.20;1.20;;;16.70;99.90;;;;;;4985705;28;20417;-73
2021/08/04 01:33:23;;;;;;;1.45;1.33;;;16.60;99.90;;;;;;4978471;28;20510;-73
2021/08/04 01:35:49;;;;;;;30.33;22.13;;;16.70;99.90;;;;;;4969949;28;20402;-73
2021/08/04 01:38:15;;;;;;;73.20;50.50;;;16.70;99.90;;;;;;5010301;28;20412;-73
2021/08/04 01:40:41;;;;;;;61.65;42.85;;;16.70;99.90;;;;;;5013413;28;20401;-73
2021/08/04 01:43:09;;;;;;;21.73;16.58;;;16.70;99.90;;;;;;4993322;28;20454;-73
2021/08/04 01:45:36;;;;;;;18.20;12.33;;;16.60;99.90;;;;;;4977747;28;20822;-73
2021/08/04 01:48:01;;;;;;;18.17;13.53;;;16.60;99.90;;;;;;4997515;28;20406;-73
2021/08/04 01:50:28;;;;;;;4.13;3.72;;;16.50;99.90;;;;;;5013451;28;21068;-73
2021/08/04 01:52:54;;;;;;;4.78;4.28;;;16.40;99.90;;;;;;4968960;28;20494;-73
2021/08/04 01:55:20;;;;;;;4.43;3.77;;;16.40;99.90;;;;;;5010486;28;20406;-73
2021/08/04 01:57:46;;;;;;;3.88;2.83;;;16.40;99.90;;;;;;4968695;28;20437;-73
2021/08/04 02:00:12;;;;;;;2.30;2.10;;;16.40;99.90;;;;;;4968969;28;20402;-73
2021/08/04 02:02:42;;;;;;;1.65;1.55;;;16.40;99.90;;;;;;4970268;28;20402;-73
2021/08/04 02:05:09;;;;;;;1.50;1.40;;;16.50;99.90;;;;;;4994012;28;20398;-73
2021/08/04 02:07:55;;;;;;;2.58;1.38;;;16.50;99.90;;;;;;4983227;28;20755;-74
2021/08/04 02:10:58;;;;;;;1.60;1.50;;;16.50;99.90;;;;;;4993604;28;20920;-74
2021/08/04 02:14:02;;;;;;;1.60;1.50;;;16.50;99.90;;;;;;4994250;28;20402;-74
2021/08/04 02:16:36;;;;;;;1.88;1.52;;;16.50;99.90;;;;;;4954768;28;20714;-73
2021/08/04 02:19:12;;;;;;;1.17;1.17;;;16.40;99.90;;;;;;4986757;28;20476;-74
2021/08/04 02:21:41;;;;;;;1.30;1.30;;;16.50;99.90;;;;;;4963977;28;20474;-74
2021/08/04 02:24:06;;;;;;;1.23;1.23;;;16.50;99.90;;;;;;4986003;28;20490;-74
2021/08/04 02:26:32;;;;;;;1.50;1.40;;;16.50;99.90;;;;;;4978046;28;20396;-73
2021/08/04 02:28:58;;;;;;;1.13;1.13;;;16.50;99.90;;;;;;5009940;28;20440;-74
2021/08/04 02:31:23;;;;;;;1.50;1.40;;;16.50;99.90;;;;;;4982634;28;20422;-74
2021/08/04 02:33:50;;;;;;;1.53;1.43;;;16.50;99.90;;;;;;4996807;28;20735;-73
2021/08/04 02:36:16;;;;;;;1.52;1.42;;;16.60;99.90;;;;;;4977667;28;20967;-73
2021/08/04 02:38:42;;;;;;;1.10;1.10;;;16.50;99.90;;;;;;4985390;28;20472;-74
2021/08/04 02:41:07;;;;;;;1.42;1.33;;;16.50;99.90;;;;;;4967616;28;20983;-73
2021/08/04 02:43:33;;;;;;;1.60;1.50;;;16.40;99.90;;;;;;4983921;28;20542;-74
2021/08/04 02:45:59;;;;;;;1.50;1.40;;;16.50;99.90;;;;;;4983920;28;20390;-74
2021/08/04 02:48:25;;;;;;;1.45;1.40;;;16.40;99.90;;;;;;4976699;28;20515;-73
2021/08/04 02:51:04;;;;;;;2.08;1.60;;;16.40;99.90;;;;;;4982592;28;20425;-74
2021/08/04 02:53:29;;;;;;;1.40;1.30;;;16.40;99.90;;;;;;4991214;28;20407;-73
2021/08/04 02:55:55;;;;;;;1.60;1.50;;;16.40;99.90;;;;;;4965601;28;20403;-73
2021/08/04 02:58:21;;;;;;;1.50;1.40;;;16.30;99.90;;;;;;4969108;28;20407;-73
2021/08/04 03:00:47;;;;;;;1.47;1.37;;;16.30;99.90;;;;;;4983231;28;20411;-73
2021/08/04 03:03:13;;;;;;;1.60;1.50;;;16.30;99.90;;;;;;4966725;28;20407;-74
2021/08/04 03:05:39;;;;;;;1.20;1.20;;;16.20;99.90;;;;;;4966850;28;20846;-73
2021/08/04 03:08:05;;;;;;;1.40;1.30;;;16.20;99.90;;;;;;4966898;28;20978;-73
2021/08/04 03:10:30;;;;;;;1.40;1.30;;;16.20;99.90;;;;;;4968604;28;20413;-74
2021/08/04 03:12:56;;;;;;;1.43;1.40;;;16.30;99.90;;;;;;4974748;28;20407;-73
2021/08/04 03:15:22;;;;;;;1.25;1.17;;;16.30;99.90;;;;;;4967392;28;20425;-73
2021/08/04 03:17:47;;;;;;;1.30;1.20;;;16.30;99.90;;;;;;4985298;28;20409;-74
2021/08/04 03:20:13;;;;;;;1.55;1.45;;;16.30;99.90;;;;;;4983536;28;20476;-74
2021/08/04 03:22:46;;;;;;;1.35;1.35;;;16.30;99.90;;;;;;4984447;28;20400;-74
2021/08/04 03:25:13;;;;;;;1.50;1.40;;;16.30;99.90;;;;;;4983278;28;20430;-73
2021/08/04 03:27:38;;;;;;;1.33;1.30;;;16.20;99.90;;;;;;4976502;28;21084;-73
2021/08/04 03:30:04;;;;;;;1.80;1.70;;;16.10;99.90;;;;;;4999907;28;20415;-74
2021/08/04 03:32:30;;;;;;;1.30;1.27;;;16.00;99.90;;;;;;5000790;28;20498;-74
2021/08/04 03:34:56;;;;;;;1.13;1.13;;;16.10;99.90;;;;;;4991913;28;20489;-73
2021/08/04 03:37:21;;;;;;;1.70;1.60;;;16.10;99.90;;;;;;4975038;28;20416;-73
2021/08/04 03:39:47;;;;;;;1.60;1.50;;;16.10;99.90;;;;;;4977681;28;20393;-73
2021/08/04 03:42:16;;;;;;;1.60;1.50;;;16.00;99.90;;;;;;4992921;28;21006;-73
2021/08/04 03:44:42;;;;;;;1.90;1.80;;;16.00;99.90;;;;;;4993554;28;20484;-74
2021/08/04 03:47:07;;;;;;;2.30;2.10;;;16.10;99.90;;;;;;4982159;28;20975;-73
2021/08/04 03:49:33;;;;;;;1.63;1.52;;;16.00;99.90;;;;;;4991922;28;20525;-73
2021/08/04 03:51:59;;;;;;;1.77;1.67;;;16.00;99.90;;;;;;5000505;28;20911;-76
2021/08/04 03:54:24;;;;;;;2.00;1.90;;;15.90;99.90;;;;;;4975769;28;20454;-73
2021/08/04 03:56:50;;;;;;;1.23;1.23;;;15.90;99.90;;;;;;4983385;28;20509;-74
2021/08/04 03:59:16;;;;;;;1.50;1.40;;;15.90;99.90;;;;;;4992930;28;20417;-73
2021/08/04 04:01:41;;;;;;;1.55;1.45;;;15.90;99.90;;;;;;4965834;28;20410;-73
2021/08/04 04:04:07;;;;;;;1.57;1.47;;;16.00;99.90;;;;;;4989385;28;21011;-73
2021/08/04 04:06:33;;;;;;;1.90;1.80;;;16.00;99.90;;;;;;4982060;28;20842;-73
2021/08/04 04:08:58;;;;;;;1.53;1.43;;;16.00;99.90;;;;;;4966511;28;20466;-73
2021/08/04 04:11:24;;;;;;;1.80;1.70;;;16.00;99.90;;;;;;4991512;28;20403;-73
2021/08/04 04:13:50;;;;;;;1.27;1.27;;;16.10;99.90;;;;;;4965368;28;20436;-73
2021/08/04 04:16:15;;;;;;;1.60;1.50;;;16.10;99.90;;;;;;4973643;28;21022;-73
2021/08/04 04:18:41;;;;;;;1.70;1.60;;;16.10;99.90;;;;;;4984462;28;20958;-73
2021/08/04 04:21:07;;;;;;;1.47;1.37;;;16.00;99.90;;;;;;4977996;28;20432;-73
2021/08/04 04:23:32;;;;;;;1.27;1.23;;;16.10;99.90;;;;;;4984735;28;20401;-74
2021/08/04 04:25:58;;;;;;;2.22;1.70;;;16.10;99.90;;;;;;4968079;28;20402;-73
2021/08/04 04:28:24;;;;;;;1.50;1.40;;;16.10;99.90;;;;;;4991814;28;20409;-73
2021/08/04 04:30:49;;;;;;;1.60;1.50;;;16.10;99.90;;;;;;4966865;28;20401;-73
2021/08/04 04:33:15;;;;;;;1.40;1.30;;;16.10;99.90;;;;;;4966996;28;20950;-73
2021/08/04 04:35:41;;;;;;;1.50;1.40;;;16.10;99.90;;;;;;4964841;28;20432;-73
2021/08/04 04:38:06;;;;;;;1.20;1.20;;;16.10;99.90;;;;;;4981109;28;20407;-74
2021/08/04 04:40:32;;;;;;;1.67;1.57;;;16.10;99.90;;;;;;4981696;28;20394;-73
2021/08/04 04:42:58;;;;;;;2.50;1.65;;;16.10;99.90;;;;;;4965843;28;20406;-73
2021/08/04 04:45:23;;;;;;;2.20;1.83;;;16.10;99.90;;;;;;4963979;28;20434;-73
2021/08/04 04:47:49;;;;;;;2.07;1.97;;;16.10;99.90;;;;;;4973483;28;20420;-73
2021/08/04 04:50:15;;;;;;;1.30;1.30;;;16.10;99.90;;;;;;4991888;28;20600;-73
2021/08/04 04:52:43;;;;;;;1.90;1.80;;;16.10;99.90;;;;;;4981671;28;20479;-73
2021/08/04 04:55:09;;;;;;;1.52;1.42;;;16.20;99.90;;;;;;4968631;28;20434;-73
2021/08/04 04:57:35;;;;;;;1.90;1.80;;;16.30;99.90;;;;;;4983813;28;20460;-73
2021/08/04 05:00:01;;;;;;;1.80;1.70;;;16.40;99.90;;;;;;4966724;28;20647;-73
2021/08/04 05:02:26;;;;;;;1.87;1.77;;;16.40;99.90;;;;;;4968568;28;20412;-73
2021/08/04 05:04:52;;;;;;;3.30;2.33;;;16.50;99.90;;;;;;4984527;28;20893;-73
2021/08/04 05:07:18;;;;;;;2.17;2.03;;;16.60;99.90;;;;;;4975749;28;20391;-73
2021/08/04 05:09:43;;;;;;;2.53;2.33;;;16.70;99.90;;;;;;4982703;28;20919;-73
2021/08/04 05:12:09;;;;;;;2.03;1.92;;;16.80;99.90;;;;;;4990752;28;20484;-74
2021/08/04 05:14:35;;;;;;;2.37;2.20;;;16.80;99.90;;;;;;4980329;28;20405;-73
2021/08/04 05:17:00;;;;;;;1.95;1.85;;;16.90;99.90;;;;;;4977323;28;20397;-73
2021/08/04 05:19:26;;;;;;;2.40;2.20;;;17.00;99.90;;;;;;4963725;28;20426;-73
2021/08/04 05:21:52;;;;;;;1.90;1.80;;;17.10;99.90;;;;;;4989336;28;20764;-73
2021/08/04 05:24:17;;;;;;;2.28;2.17;;;17.20;99.90;;;;;;4967321;28;20398;-73
2021/08/04 05:26:43;;;;;;;2.40;2.20;;;17.20;99.90;;;;;;4982811;28;20401;-73
2021/08/04 05:29:09;;;;;;;3.63;2.22;;;17.30;99.90;;;;;;4985696;28;20404;-73
2021/08/04 05:31:34;;;;;;;2.37;2.20;;;17.40;99.90;;;;;;4976796;28;20432;-73
2021/08/04 05:34:00;;;;;;;2.50;2.30;;;17.50;99.90;;;;;;4985314;28;20406;-73
2021/08/04 05:36:26;;;;;;;6.33;2.67;;;17.60;99.90;;;;;;4994834;28;20453;-73
2021/08/04 05:38:53;;;;;;;2.25;2.08;;;17.70;99.90;;;;;;4968560;28;20928;-73
2021/08/04 05:41:19;;;;;;;2.63;2.42;;;17.70;99.90;;;;;;4993153;28;20519;-73
2021/08/04 05:43:45;;;;;;;2.83;2.63;;;17.80;99.90;;;;;;4994920;28;20592;-72
2021/08/04 05:46:10;;;;;;;2.45;2.25;;;17.90;99.90;;;;;;4967554;28;20397;-73
2021/08/04 05:48:36;;;;;;;2.47;2.22;;;17.90;99.90;;;;;;5012035;28;20507;-72
2021/08/04 05:51:01;;;;;;;2.70;2.50;;;18.00;99.90;;;;;;4968398;28;20392;-72
2021/08/04 05:53:27;;;;;;;2.92;2.60;;;18.00;99.90;;;;;;4969647;28;21023;-73
2021/08/04 05:55:53;;;;;;;2.60;2.40;;;18.00;99.90;;;;;;4970518;28;20804;-73
2021/08/04 05:58:19;;;;;;;2.10;1.90;;;18.10;99.90;;;;;;4992936;28;20404;-73
2021/08/04 06:00:44;;;;;;;1.83;1.73;;;18.20;99.90;;;;;;4983866;28;20489;-73
2021/08/04 06:03:10;;;;;;;3.00;2.17;;;18.20;99.90;;;;;;4970428;28;20389;-73
2021/08/04 06:05:36;;;;;;;1.75;1.65;;;18.30;99.90;;;;;;4985247;28;20424;-73
2021/08/04 06:08:01;;;;;;;1.87;1.77;;;18.40;99.90;;;;;;5010241;28;21220;-73
2021/08/04 06:10:27;;;;;;;1.88;1.77;;;18.50;99.90;;;;;;4994696;28;20411;-73
2021/08/04 06:12:53;;;;;;;1.60;1.50;;;18.70;99.90;;;;;;4968332;28;20400;-73
2021/08/04 06:15:18;;;;;;;2.25;2.05;;;18.80;99.90;;;;;;4983850;28;20898;-73
2021/08/04 06:17:44;;;;;;;2.00;1.90;;;18.80;99.90;;;;;;4994607;28;20418;-73
2021/08/04 06:20:10;;;;;;;2.17;2.07;;;18.90;99.90;;;;;;4969469;28;20396;-73
2021/08/04 06:22:36;;;;;;;2.33;2.13;;;19.00;99.90;;;;;;4993470;28;20416;-73
2021/08/04 06:25:02;;;;;;;1.80;1.70;;;19.10;99.90;;;;;;4966599;28;20774;-73
2021/08/04 06:27:27;;;;;;;2.00;1.90;;;19.20;99.90;;;;;;4992715;28;20449;-73
2021/08/04 06:29:53;;;;;;;2.10;1.90;;;19.30;99.90;;;;;;4985005;28;20399;-73
2021/08/04 06:32:19;;;;;;;2.45;2.25;;;19.30;99.90;;;;;;4997680;28;20413;-73
2021/08/04 06:34:45;;;;;;;2.08;1.98;;;19.40;99.90;;;;;;4979799;28;20387;-73
2021/08/04 06:37:10;;;;;;;2.30;2.10;;;19.50;99.90;;;;;;4967979;28;20392;-73
2021/08/04 06:39:36;;;;;;;1.90;1.80;;;19.70;99.90;;;;;;4968672;28;20497;-73
2021/08/04 06:42:03;;;;;;;2.10;2.00;;;19.60;99.90;;;;;;4995766;28;20397;-73
2021/08/04 06:44:28;;;;;;;2.15;1.95;;;19.60;99.90;;;;;;4993315;28;20405;-74
2021/08/04 06:46:57;;;;;;;2.15;1.95;;;19.60;99.90;;;;;;4967522;28;21167;-74
2021/08/04 06:49:23;;;;;;;2.00;1.90;;;19.70;99.90;;;;;;5001673;28;20402;-73
2021/08/04 06:51:49;;;;;;;1.98;1.88;;;19.80;99.90;;;;;;5008820;28;20752;-73
2021/08/04 06:54:14;;;;;;;2.15;2.00;;;19.80;99.90;;;;;;4975706;28;20429;-73
2021/08/04 06:56:40;;;;;;;2.10;2.00;;;19.80;99.90;;;;;;4977158;28;20407;-73
2021/08/04 06:59:06;;;;;;;2.63;2.08;;;19.70;99.90;;;;;;4966985;28;21053;-73
2021/08/04 07:01:31;;;;;;;1.87;1.77;;;19.70;99.90;;;;;;4983334;28;20418;-74
2021/08/04 07:03:57;;;;;;;2.10;2.00;;;19.70;99.90;;;;;;4969024;28;20404;-73
2021/08/04 07:06:23;;;;;;;2.50;2.30;;;19.80;99.90;;;;;;4992190;28;20902;-73
2021/08/04 07:08:48;;;;;;;2.60;2.40;;;19.80;99.90;;;;;;4984615;28;20398;-73
2021/08/04 07:11:14;;;;;;;2.75;2.55;;;19.80;99.90;;;;;;4992399;28;20403;-73
2021/08/04 07:13:40;;;;;;;2.33;2.13;;;19.80;99.90;;;;;;4967467;28;20402;-74
2021/08/04 07:16:06;;;;;;;2.47;2.25;;;19.70;99.90;;;;;;4994618;28;20857;-73
2021/08/04 07:18:32;;;;;;;2.95;2.70;;;19.70;99.90;;;;;;4965527;28;20429;-73
2021/08/04 07:20:57;;;;;;;3.00;2.80;;;19.70;99.90;;;;;;4968012;28;20393;-73
2021/08/04 07:23:23;;;;;;;2.55;2.35;;;19.50;99.90;;;;;;4974304;28;20424;-73
2021/08/04 07:25:49;;;;;;;2.42;2.22;;;19.50;99.90;;;;;;4966944;28;20413;-73
2021/08/04 07:28:14;;;;;;;2.50;2.20;;;19.50;99.90;;;;;;4994335;28;21257;-73
2021/08/04 07:30:40;;;;;;;2.47;2.27;;;19.50;99.90;;;;;;4992700;28;20409;-73
2021/08/04 07:33:06;;;;;;;3.33;2.50;;;19.50;99.90;;;;;;4984125;28;20493;-73
2021/08/04 07:35:31;;;;;;;2.77;2.60;;;19.50;99.90;;;;;;4992037;28;20492;-73
2021/08/04 07:37:57;;;;;;;2.90;2.70;;;19.40;99.90;;;;;;4967573;28;20441;-73
2021/08/04 07:40:23;;;;;;;2.72;2.53;;;19.30;99.90;;;;;;4992931;28;20393;-73
2021/08/04 07:42:49;;;;;;;2.87;2.67;;;19.30;99.90;;;;;;4999471;28;20401;-74
2021/08/04 07:45:16;;;;;;;2.70;2.50;;;19.20;99.90;;;;;;4973689;28;20529;-74
2021/08/04 07:47:42;;;;;;;2.78;2.58;;;19.30;99.90;;;;;;4967430;28;20400;-74
2021/08/04 07:50:08;;;;;;;2.50;2.30;;;19.40;99.90;;;;;;4976307;28;20388;-73
2021/08/04 07:52:34;;;;;;;2.55;2.35;;;19.60;99.90;;;;;;4967396;28;20435;-73
2021/08/04 07:54:59;;;;;;;3.13;2.60;;;19.70;99.90;;;;;;4967938;28;20385;-74
2021/08/04 07:57:25;;;;;;;3.63;3.33;;;19.70;99.90;;;;;;4965195;28;20943;-73
2021/08/04 07:59:51;;;;;;;3.30;3.00;;;19.70;99.90;;;;;;4983193;28;20496;-74
2021/08/04 08:02:16;;;;;;;3.00;2.80;;;19.60;99.90;;;;;;4975244;28;21125;-73
2021/08/04 08:04:42;;;;;;;2.78;2.58;;;19.60;99.90;;;;;;4994057;28;20456;-73
2021/08/04 08:07:08;;;;;;;3.00;2.80;;;19.70;99.90;;;;;;4976631;28;20424;-74
2021/08/04 08:09:33;;;;;;;2.95;2.65;;;19.80;99.90;;;;;;4983277;28;20399;-74
2021/08/04 08:11:59;;;;;;;3.40;3.10;;;19.90;99.90;;;;;;5007003;28;20467;-74
2021/08/04 08:14:25;;;;;;;3.95;2.72;;;19.90;99.90;;;;;;5010185;28;20396;-74
2021/08/04 08:16:51;;;;;;;4.30;2.90;;;20.00;99.90;;;;;;4985636;28;20409;-73
2021/08/04 08:19:17;;;;;;;2.55;2.35;;;20.00;99.90;;;;;;4984037;28;20417;-74
2021/08/04 08:21:43;;;;;;;2.60;2.40;;;20.00;99.90;;;;;;4992732;28;20409;-74
2021/08/04 08:24:09;;;;;;;2.35;2.15;;;20.10;99.90;;;;;;5009885;28;20434;-74
2021/08/04 08:26:35;;;;;;;2.50;2.30;;;20.30;99.90;;;;;;4993231;28;20404;-73
2021/08/04 08:29:00;;;;;;;2.40;2.20;;;20.40;99.90;;;;;;4966751;28;20419;-74
2021/08/04 08:31:26;;;;;;;2.17;2.08;;;20.60;99.90;;;;;;4966398;28;20403;-74
2021/08/04 08:33:52;;;;;;;1.90;1.80;;;20.70;99.90;;;;;;4990548;28;20427;-74
2021/08/04 08:36:18;;;;;;;2.10;1.90;;;20.70;99.90;;;;;;4982874;28;20437;-74
2021/08/04 08:38:43;;;;;;;3.10;1.90;;;20.80;99.90;;;;;;4983845;28;20420;-73
2021/08/04 08:41:09;;;;;;;1.93;1.83;;;20.90;99.90;;;;;;4983384;28;20390;-73
2021/08/04 08:43:35;;;;;;;2.30;2.10;;;20.90;99.90;;;;;;4965736;28;20806;-74
2021/08/04 08:46:04;;;;;;;2.33;2.13;;;21.00;99.90;;;;;;4964772;28;20503;-74
2021/08/04 08:48:30;;;;;;;1.90;1.80;;;21.00;99.90;;;;;;4969680;28;20509;-74
2021/08/04 08:50:55;;;;;;;2.00;1.80;;;21.10;99.90;;;;;;4967355;28;20495;-73
2021/08/04 08:53:21;;;;;;;1.95;1.85;;;21.20;99.90;;;;;;4966669;28;20782;-74
2021/08/04 08:55:48;;;;;;;2.33;2.13;;;21.50;99.90;;;;;;4990823;28;20407;-73
2021/08/04 08:58:14;;;;;;;2.00;1.90;;;21.80;99.90;;;;;;4967323;28;20476;-74
2021/08/04 09:00:39;;;;;;;1.90;1.80;;;22.00;99.90;;;;;;4973228;28;20414;-73
2021/08/04 09:03:05;;;;;;;2.20;2.00;;;22.10;99.90;;;;;;5000526;28;20419;-73
2021/08/04 09:05:47;;;;;;;2.53;2.08;;;22.00;99.90;;;;;;4978209;28;20404;-74
2021/08/04 09:08:29;;;;;;;2.30;2.17;;;22.10;99.90;;;;;;4971991;28;20408;-73
2021/08/04 09:10:56;;;;;;;2.22;2.03;;;22.20;99.90;;;;;;4984669;28;20415;-74
2021/08/04 09:13:31;;;;;;;1.77;1.67;;;22.50;99.90;;;;;;4970354;28;21036;-74
2021/08/04 09:16:08;;;;;;;2.05;1.85;;;22.70;99.90;;;;;;4997120;28;20429;-74
2021/08/04 09:18:41;;;;;;;1.50;1.50;;;23.00;99.90;;;;;;5019751;28;20412;-73
2021/08/04 09:21:07;;;;;;;2.30;1.60;;;23.20;99.90;;;;;;4993092;28;20473;-73
2021/08/04 09:23:33;;;;;;;1.60;1.50;;;23.40;99.90;;;;;;4984237;28;20481;-73
2021/08/04 09:26:09;;;;;;;1.60;1.50;;;23.70;99.90;;;;;;5010877;28;20399;-73
2021/08/04 09:29:06;;;;;;;1.42;1.33;;;24.00;99.90;;;;;;4996150;28;20488;-74
2021/08/04 09:31:41;;;;;;;1.40;1.30;;;24.40;99.90;;;;;;5001581;28;20409;-74
2021/08/04 09:34:28;;;;;;;1.50;1.40;;;24.80;99.90;;;;;;4983648;28;20490;-73
2021/08/04 09:37:04;;;;;;;1.80;1.70;;;25.00;99.90;;;;;;4995381;28;20406;-73
2021/08/04 09:39:31;;;;;;;1.60;1.45;;;25.10;99.90;;;;;;5011507;28;20841;-73
2021/08/04 09:41:57;;;;;;;1.70;1.60;;;25.50;99.90;;;;;;4986347;28;20481;-73
2021/08/04 09:44:23;;;;;;;1.20;1.20;;;25.60;99.90;;;;;;5010811;28;21094;-73
2021/08/04 09:46:49;;;;;;;1.30;1.20;;;25.70;99.90;;;;;;4972643;28;20439;-73
2021/08/04 09:49:16;;;;;;;1.40;1.30;;;25.80;99.90;;;;;;4970807;28;20433;-73
2021/08/04 09:51:42;;;;;;;1.20;1.20;;;26.20;99.90;;;;;;4996472;28;20393;-74
2021/08/04 09:54:14;;;;;;;1.30;1.20;;;26.40;99.90;;;;;;4997638;28;20398;-73
2021/08/04 09:56:53;;;;;;;1.30;1.20;;;26.90;99.90;;;;;;4971872;28;20816;-73
2021/08/04 09:59:20;;;;;;;1.40;1.30;;;27.10;99.90;;;;;;4994093;28;20415;-73
2021/08/04 10:01:46;;;;;;;1.00;1.00;;;27.40;99.90;;;;;;4968509;28;20421;-74
2021/08/04 10:04:12;;;;;;;1.30;1.20;;;27.70;99.90;;;;;;4985060;28;20412;-73
2021/08/04 10:06:40;;;;;;;0.80;0.80;;;27.50;99.90;;;;;;4986045;28;20404;-73
2021/08/04 10:09:07;;;;;;;1.10;1.10;;;27.90;99.90;;;;;;4969357;28;20453;-74
2021/08/04 10:11:33;;;;;;;0.90;0.90;;;28.30;99.90;;;;;;4969465;28;20401;-74
2021/08/04 10:13:59;;;;;;;1.10;1.00;;;28.50;99.90;;;;;;4966968;28;20406;-73
2021/08/04 10:16:28;;;;;;;1.13;1.10;;;28.60;99.90;;;;;;4968244;28;20401;-73
2021/08/04 10:18:54;;;;;;;1.20;1.20;;;28.60;99.90;;;;;;4961189;28;20415;-74
2021/08/04 10:21:20;;;;;;;1.30;1.20;;;28.20;99.90;;;;;;5000182;28;20488;-73
2021/08/04 10:23:48;;;;;;;0.93;0.93;;;27.90;99.90;;;;;;4985725;28;20433;-73
2021/08/04 10:26:14;;;;;;;1.20;1.20;;;28.00;99.90;;;;;;4984971;28;20405;-73
2021/08/04 10:28:41;;;;;;;1.00;1.00;;;27.90;99.90;;;;;;4968901;28;20808;-74
2021/08/04 10:31:09;;;;;;;1.20;1.10;;;27.70;99.90;;;;;;4990472;28;20873;-73
2021/08/04 10:33:34;;;;;;;1.08;1.08;;;27.60;99.90;;;;;;4985966;28;20399;-73
2021/08/04 10:36:03;;;;;;;1.10;1.10;;;27.40;99.90;;;;;;5008361;28;20399;-73
2021/08/04 10:38:29;;;;;;;1.20;1.20;;;27.20;99.90;;;;;;4993067;28;20426;-73
2021/08/04 10:41:14;;;;;;;2.85;2.63;;;27.00;99.90;;;;;;5009742;28;20389;-73
2021/08/04 10:43:52;;;;;;;1.17;1.17;;;26.80;99.90;;;;;;4971250;28;20403;-74
2021/08/04 10:46:38;;;;;;;1.20;1.20;;;26.60;99.90;;;;;;4994762;28;20492;-73
2021/08/04 10:49:04;;;;;;;1.17;1.10;;;26.60;99.90;;;;;;4993273;28;20504;-74
2021/08/04 10:51:50;;;;;;;0.93;0.93;;;26.50;99.90;;;;;;4993461;28;20494;-74
2021/08/04 10:54:18;;;;;;;1.00;1.00;;;26.50;99.90;;;;;;4976727;28;20497;-73
2021/08/04 10:56:44;;;;;;;0.95;0.95;;;26.20;99.90;;;;;;5001286;28;20434;-73
2021/08/04 10:59:13;;;;;;;1.10;1.10;;;26.20;99.90;;;;;;4993335;28;20496;-73
2021/08/04 11:01:41;;;;;;;1.35;1.00;;;26.30;99.90;;;;;;5009539;28;20432;-74
2021/08/04 11:04:08;;;;;;;0.90;0.90;;;26.30;99.90;;;;;;5010827;28;20413;-73
2021/08/04 11:06:33;;;;;;;1.10;1.10;;;26.30;99.90;;;;;;5009768;28;20923;-73
2021/08/04 11:09:14;;;;;;;2.60;1.45;;;26.30;99.90;;;;;;4984109;28;20400;-74
2021/08/04 11:11:49;;;;;;;1.20;1.20;;;26.40;99.90;;;;;;4978373;28;20899;-74
2021/08/04 11:14:53;;;;;;;1.40;1.30;;;26.50;99.90;;;;;;4994342;28;20401;-74
2021/08/04 11:17:29;;;;;;;1.20;1.20;;;26.80;99.90;;;;;;4985370;28;20793;-74
2021/08/04 11:20:16;;;;;;;1.30;1.30;;;26.70;99.90;;;;;;4984085;28;20534;-74
2021/08/04 11:22:42;;;;;;;1.10;1.10;;;26.80;99.90;;;;;;4993855;28;20414;-74
2021/08/04 11:25:43;;;;;;;1.50;1.40;;;26.90;99.90;;;;;;4984796;28;20498;-74
2021/08/04 11:28:16;;;;;;;1.30;1.20;;;27.10;99.90;;;;;;5011008;28;20397;-74
2021/08/04 11:30:50;;;;;;;1.30;1.20;;;27.30;99.90;;;;;;4978313;28;20406;-73
2021/08/04 11:33:19;;;;;;;1.17;1.15;;;27.30;99.90;;;;;;5004122;28;20815;-73
2021/08/04 11:35:46;;;;;;;1.10;1.10;;;27.00;99.90;;;;;;4994630;28;20402;-73
2021/08/04 11:38:12;;;;;;;1.30;1.20;;;26.90;99.90;;;;;;4984939;28;20466;-73
2021/08/04 11:40:37;;;;;;;1.10;1.10;;;26.80;99.90;;;;;;4984555;28;20810;-73
2021/08/04 11:43:03;;;;;;;1.40;1.33;;;27.00;99.90;;;;;;5004192;28;20408;-74
2021/08/04 11:45:29;;;;;;;1.30;1.20;;;27.10;99.90;;;;;;5009397;28;20412;-74
2021/08/04 11:47:55;;;;;;;1.00;1.00;;;27.00;99.90;;;;;;5008109;28;20422;-73
2021/08/04 11:50:20;;;;;;;1.13;1.08;;;27.10;99.90;;;;;;4983228;28;20815;-74
2021/08/04 11:52:46;;;;;;;1.23;1.15;;;27.50;99.90;;;;;;4994314;28;20415;-74
2021/08/04 11:55:13;;;;;;;1.10;1.10;;;28.20;99.90;;;;;;5007832;28;20408;-74
2021/08/04 11:57:43;;;;;;;1.10;1.10;;;28.90;99.90;;;;;;5012738;28;20401;-73
2021/08/04 12:00:24;;;;;;;1.20;1.20;;;29.20;99.90;;;;;;4978262;28;20429;-74
2021/08/04 12:02:50;;;;;;;1.10;1.10;;;28.80;99.90;;;;;;4967707;28;21131;-75
2021/08/04 12:05:16;;;;;;;0.90;0.90;;;29.20;99.90;;;;;;4981539;28;20485;-75
2021/08/04 12:07:42;;;;;;;1.10;1.10;;;29.10;99.90;;;;;;4986092;28;20520;-76
2021/08/04 12:10:12;;;;;;;2.10;1.20;;;29.10;99.90;;;;;;4988898;28;20400;-75
2021/08/04 12:12:54;;;;;;;1.20;1.20;;;29.30;99.90;;;;;;4996017;28;20401;-76
2021/08/04 12:15:26;;;;;;;1.60;1.50;;;29.40;99.90;;;;;;4997712;28;20400;-76
2021/08/04 12:17:58;;;;;;;1.38;1.30;;;29.70;99.90;;;;;;4983742;28;20400;-77
2021/08/04 12:20:25;;;;;;;3.63;1.27;;;30.30;99.90;;;;;;4991780;28;20503;-76
2021/08/04 12:23:08;;;;;;;1.60;1.50;;;31.00;99.90;;;;;;5009129;28;20399;-77
2021/08/04 12:25:38;;;;;;;1.45;1.35;;;31.60;99.90;;;;;;4975409;28;20433;-77
2021/08/04 12:28:04;;;;;;;1.33;1.27;;;31.90;99.70;;;;;;4983491;28;20391;-76
2021/08/04 12:30:41;;;;;;;1.30;1.30;;;31.90;95.70;;;;;;4978833;28;20469;-77
2021/08/04 12:33:23;;;;;;;1.33;1.30;;;32.20;99.30;;;;;;4987459;28;20400;-76
2021/08/04 12:38:27;;;;;;;1.50;1.40;;;32.00;91.60;;;;;;4988553;28;20820;-76
2021/08/04 12:40:53;;;;;;;1.00;1.00;;;31.90;92.10;;;;;;4977045;28;20486;-76
2021/08/04 12:43:20;;;;;;;1.30;1.20;;;32.10;91.70;;;;;;4980846;28;20484;-74
2021/08/04 12:45:50;;;;;;;2.10;1.60;;;32.30;93.50;;;;;;4981991;28;20702;-76
2021/08/04 12:48:17;;;;;;;1.77;1.60;;;32.30;96.10;;;;;;4990099;28;20399;-77
2021/08/04 12:50:54;;;;;;;1.40;1.30;;;32.70;96.90;;;;;;5014121;28;20483;-77
2021/08/04 12:53:27;;;;;;;1.23;1.23;;;33.60;94.00;;;;;;4988045;28;20399;-75